sensor_id;sensor_type;location;lat;lon;timestamp;temperature;humidity
1361;DHT22;674;45.552;-122.600;2022-09-09T00:02:21;25.10;1.00
1361;DHT22;674;45.552;-122.600;2022-09-09T00:04:59;25.00;1.00
1361;DHT22;674;45.552;-122.600;2022-09-09T00:07:41;24.90;1.00
1361;DHT22;674;45.552;-122.600;2022-09-09T00:10:37;24.90;1.00
1361;DHT22;674;45.552;-122.600;2022-09-09T00:13:46;25.00;1.00
1361;DHT22;674;45.552;-122.600;2022-09-09T00:16:20;25.10;1.00
1361;DHT22;674;45.552;-122.600;2022-09-09T00:19:07;25.10;1.00
1361;DHT22;674;45.552;-122.600;2022-09-09T00:21:38;25.10;1.00
1361;DHT22;674;45.552;-122.600;2022-09-09T00:24:36;25.00;1.00
1361;DHT22;674;45.552;-122.600;2022-09-09T00:27:30;25.00;1.00
1361;DHT22;674;45.552;-122.600;2022-09-09T00:30:47;24.90;1.00
1361;DHT22;674;45.552;-122.600;2022-09-09T00:33:13;24.90;1.00
1361;DHT22;674;45.552;-122.600;2022-09-09T00:35:49;24.90;1.00
1361;DHT22;674;45.552;-122.600;2022-09-09T00:38:35;24.80;1.00
1361;DHT22;674;45.552;-122.600;2022-09-09T00:41:14;24.80;1.00
1361;DHT22;674;45.552;-122.600;2022-09-09T00:43:57;24.70;1.00
1361;DHT22;674;45.552;-122.600;2022-09-09T00:57:26;24.50;1.00
1361;DHT22;674;45.552;-122.600;2022-09-09T01:00:24;24.50;1.00
1361;DHT22;674;45.552;-122.600;2022-09-09T01:08:42;24.50;1.00
1361;DHT22;674;45.552;-122.600;2022-09-09T01:12:02;24.50;1.00
1361;DHT22;674;45.552;-122.600;2022-09-09T01:17:34;24.40;1.00
1361;DHT22;674;45.552;-122.600;2022-09-09T01:20:14;24.40;1.00
1361;DHT22;674;45.552;-122.600;2022-09-09T01:26:12;24.30;1.00
1361;DHT22;674;45.552;-122.600;2022-09-09T01:29:14;24.30;1.00
1361;DHT22;674;45.552;-122.600;2022-09-09T01:34:50;24.00;1.00
1361;DHT22;674;45.552;-122.600;2022-09-09T01:37:19;24.00;1.00
1361;DHT22;674;45.552;-122.600;2022-09-09T01:39:47;24.00;1.00
1361;DHT22;674;45.552;-122.600;2022-09-09T01:42:16;23.90;1.00
1361;DHT22;674;45.552;-122.600;2022-09-09T01:44:45;23.90;1.00
1361;DHT22;674;45.552;-122.600;2022-09-09T01:47:15;23.80;1.00
1361;DHT22;674;45.552;-122.600;2022-09-09T01:49:43;23.80;1.00
1361;DHT22;674;45.552;-122.600;2022-09-09T01:52:11;23.70;1.00
1361;DHT22;674;45.552;-122.600;2022-09-09T01:54:40;23.60;1.00
1361;DHT22;674;45.552;-122.600;2022-09-09T01:57:12;23.50;1.00
1361;DHT22;674;45.552;-122.600;2022-09-09T02:03:05;23.40;1.00
1361;DHT22;674;45.552;-122.600;2022-09-09T02:05:39;23.30;1.00
1361;DHT22;674;45.552;-122.600;2022-09-09T02:08:09;23.20;1.00
1361;DHT22;674;45.552;-122.600;2022-09-09T02:13:22;23.10;1.00
1361;DHT22;674;45.552;-122.600;2022-09-09T02:16:03;23.00;1.00
1361;DHT22;674;45.552;-122.600;2022-09-09T02:21:29;22.80;1.00
1361;DHT22;674;45.552;-122.600;2022-09-09T02:24:00;22.70;1.00
1361;DHT22;674;45.552;-122.600;2022-09-09T02:26:34;22.70;1.00
1361;DHT22;674;45.552;-122.600;2022-09-09T02:29:08;22.50;1.00
1361;DHT22;674;45.552;-122.600;2022-09-09T02:31:38;22.50;1.00
1361;DHT22;674;45.552;-122.600;2022-09-09T02:34:09;22.40;1.00
1361;DHT22;674;45.552;-122.600;2022-09-09T02:36:40;22.40;1.00
1361;DHT22;674;45.552;-122.600;2022-09-09T02:39:11;22.40;1.00
1361;DHT22;674;45.552;-122.600;2022-09-09T02:41:42;22.20;1.00
1361;DHT22;674;45.552;-122.600;2022-09-09T02:44:18;22.20;1.00
1361;DHT22;674;45.552;-122.600;2022-09-09T02:52:42;21.90;1.00
1361;DHT22;674;45.552;-122.600;2022-09-09T02:55:52;21.90;1.00
1361;DHT22;674;45.552;-122.600;2022-09-09T02:58:22;21.80;1.00
1361;DHT22;674;45.552;-122.600;2022-09-09T03:00:52;21.70;1.00
1361;DHT22;674;45.552;-122.600;2022-09-09T03:03:20;21.60;1.00
1361;DHT22;674;45.552;-122.600;2022-09-09T03:05:50;21.50;1.00
1361;DHT22;674;45.552;-122.600;2022-09-09T03:08:18;21.50;1.00
1361;DHT22;674;45.552;-122.600;2022-09-09T03:10:46;21.40;1.00
1361;DHT22;674;45.552;-122.600;2022-09-09T03:13:15;21.30;1.00
1361;DHT22;674;45.552;-122.600;2022-09-09T03:15:44;21.30;1.00
1361;DHT22;674;45.552;-122.600;2022-09-09T03:18:12;21.20;1.00
1361;DHT22;674;45.552;-122.600;2022-09-09T03:20:42;21.10;1.00
1361;DHT22;674;45.552;-122.600;2022-09-09T03:23:10;21.00;1.00
1361;DHT22;674;45.552;-122.600;2022-09-09T03:25:51;20.90;1.00
1361;DHT22;674;45.552;-122.600;2022-09-09T03:28:21;20.80;1.00
1361;DHT22;674;45.552;-122.600;2022-09-09T03:30:51;20.70;1.00
1361;DHT22;674;45.552;-122.600;2022-09-09T03:33:19;20.60;1.00
1361;DHT22;674;45.552;-122.600;2022-09-09T03:35:48;20.60;1.00
1361;DHT22;674;45.552;-122.600;2022-09-09T03:38:16;20.60;1.00
1361;DHT22;674;45.552;-122.600;2022-09-09T03:40:52;20.50;1.00
1361;DHT22;674;45.552;-122.600;2022-09-09T03:43:27;20.50;1.00
1361;DHT22;674;45.552;-122.600;2022-09-09T03:45:56;20.40;1.00
1361;DHT22;674;45.552;-122.600;2022-09-09T03:48:27;20.30;1.00
1361;DHT22;674;45.552;-122.600;2022-09-09T03:50:57;20.30;1.00
1361;DHT22;674;45.552;-122.600;2022-09-09T03:53:29;20.30;1.00
1361;DHT22;674;45.552;-122.600;2022-09-09T03:55:57;20.30;1.00
1361;DHT22;674;45.552;-122.600;2022-09-09T03:58:27;20.20;1.00
1361;DHT22;674;45.552;-122.600;2022-09-09T04:01:02;20.10;1.00
1361;DHT22;674;45.552;-122.600;2022-09-09T04:03:31;20.00;1.00
1361;DHT22;674;45.552;-122.600;2022-09-09T04:06:02;20.00;1.00
1361;DHT22;674;45.552;-122.600;2022-09-09T04:08:31;20.00;1.00
1361;DHT22;674;45.552;-122.600;2022-09-09T04:11:00;19.90;1.00
1361;DHT22;674;45.552;-122.600;2022-09-09T04:13:35;19.90;1.00
1361;DHT22;674;45.552;-122.600;2022-09-09T04:16:06;19.80;1.00
1361;DHT22;674;45.552;-122.600;2022-09-09T04:18:36;19.70;1.00
1361;DHT22;674;45.552;-122.600;2022-09-09T04:21:05;19.70;1.00
1361;DHT22;674;45.552;-122.600;2022-09-09T04:23:35;19.60;1.00
1361;DHT22;674;45.552;-122.600;2022-09-09T04:26:05;19.60;1.00
1361;DHT22;674;45.552;-122.600;2022-09-09T04:28:36;19.50;1.00
1361;DHT22;674;45.552;-122.600;2022-09-09T04:31:10;19.50;1.00
1361;DHT22;674;45.552;-122.600;2022-09-09T04:33:40;19.50;1.00
1361;DHT22;674;45.552;-122.600;2022-09-09T04:36:08;19.50;1.00
1361;DHT22;674;45.552;-122.600;2022-09-09T04:38:37;19.40;1.00
1361;DHT22;674;45.552;-122.600;2022-09-09T04:41:06;19.30;1.00
1361;DHT22;674;45.552;-122.600;2022-09-09T04:43:35;19.40;1.00
1361;DHT22;674;45.552;-122.600;2022-09-09T04:46:04;19.30;1.00
1361;DHT22;674;45.552;-122.600;2022-09-09T04:48:32;19.30;1.00
1361;DHT22;674;45.552;-122.600;2022-09-09T04:51:05;19.20;1.00
1361;DHT22;674;45.552;-122.600;2022-09-09T04:53:34;19.10;1.00
1361;DHT22;674;45.552;-122.600;2022-09-09T04:56:11;19.10;1.00
1361;DHT22;674;45.552;-122.600;2022-09-09T04:58:40;19.10;1.00
1361;DHT22;674;45.552;-122.600;2022-09-09T05:01:20;19.00;1.00
1361;DHT22;674;45.552;-122.600;2022-09-09T05:03:52;19.00;1.00
1361;DHT22;674;45.552;-122.600;2022-09-09T05:06:22;18.90;1.00
1361;DHT22;674;45.552;-122.600;2022-09-09T05:08:50;18.80;1.00
1361;DHT22;674;45.552;-122.600;2022-09-09T05:11:23;18.80;1.00
1361;DHT22;674;45.552;-122.600;2022-09-09T05:13:52;18.70;1.00
1361;DHT22;674;45.552;-122.600;2022-09-09T05:16:21;18.70;1.00
1361;DHT22;674;45.552;-122.600;2022-09-09T05:18:51;18.70;1.00
1361;DHT22;674;45.552;-122.600;2022-09-09T05:21:21;18.60;1.00
1361;DHT22;674;45.552;-122.600;2022-09-09T05:23:50;18.60;1.00
1361;DHT22;674;45.552;-122.600;2022-09-09T05:26:21;18.50;1.00
1361;DHT22;674;45.552;-122.600;2022-09-09T05:28:49;18.50;1.00
1361;DHT22;674;45.552;-122.600;2022-09-09T05:31:18;18.50;1.00
1361;DHT22;674;45.552;-122.600;2022-09-09T05:33:48;18.50;1.00
1361;DHT22;674;45.552;-122.600;2022-09-09T05:36:19;18.50;1.00
1361;DHT22;674;45.552;-122.600;2022-09-09T05:38:48;18.40;1.00
1361;DHT22;674;45.552;-122.600;2022-09-09T05:41:19;18.30;1.00
1361;DHT22;674;45.552;-122.600;2022-09-09T05:43:47;18.30;1.00
1361;DHT22;674;45.552;-122.600;2022-09-09T05:46:20;18.30;1.00
1361;DHT22;674;45.552;-122.600;2022-09-09T05:48:50;18.20;1.00
1361;DHT22;674;45.552;-122.600;2022-09-09T05:51:22;18.20;1.00
1361;DHT22;674;45.552;-122.600;2022-09-09T05:53:51;18.20;1.00
1361;DHT22;674;45.552;-122.600;2022-09-09T05:56:22;18.20;1.00
1361;DHT22;674;45.552;-122.600;2022-09-09T05:58:54;18.10;1.00
1361;DHT22;674;45.552;-122.600;2022-09-09T06:01:25;18.10;1.00
1361;DHT22;674;45.552;-122.600;2022-09-09T06:03:57;18.00;1.00
1361;DHT22;674;45.552;-122.600;2022-09-09T06:06:27;17.90;1.00
1361;DHT22;674;45.552;-122.600;2022-09-09T06:08:58;17.90;1.00
1361;DHT22;674;45.552;-122.600;2022-09-09T06:11:28;17.90;1.00
1361;DHT22;674;45.552;-122.600;2022-09-09T06:14:00;17.90;1.00
1361;DHT22;674;45.552;-122.600;2022-09-09T06:16:30;17.80;1.00
1361;DHT22;674;45.552;-122.600;2022-09-09T06:19:01;17.70;1.00
1361;DHT22;674;45.552;-122.600;2022-09-09T06:21:33;17.80;1.00
1361;DHT22;674;45.552;-122.600;2022-09-09T06:24:02;17.70;1.00
1361;DHT22;674;45.552;-122.600;2022-09-09T06:26:38;17.70;1.00
1361;DHT22;674;45.552;-122.600;2022-09-09T06:29:10;17.60;1.00
1361;DHT22;674;45.552;-122.600;2022-09-09T06:31:39;17.60;1.00
1361;DHT22;674;45.552;-122.600;2022-09-09T06:34:09;17.60;1.00
1361;DHT22;674;45.552;-122.600;2022-09-09T06:36:38;17.50;1.00
1361;DHT22;674;45.552;-122.600;2022-09-09T06:39:07;17.50;1.00
1361;DHT22;674;45.552;-122.600;2022-09-09T06:41:41;17.50;1.00
1361;DHT22;674;45.552;-122.600;2022-09-09T06:44:10;17.50;1.00
1361;DHT22;674;45.552;-122.600;2022-09-09T06:46:39;17.50;1.00
1361;DHT22;674;45.552;-122.600;2022-09-09T06:49:11;17.40;1.00
1361;DHT22;674;45.552;-122.600;2022-09-09T06:51:39;17.30;1.00
1361;DHT22;674;45.552;-122.600;2022-09-09T06:54:12;17.30;1.00
1361;DHT22;674;45.552;-122.600;2022-09-09T06:56:41;17.20;1.00
1361;DHT22;674;45.552;-122.600;2022-09-09T06:59:11;17.20;1.00
1361;DHT22;674;45.552;-122.600;2022-09-09T07:01:41;17.20;1.00
1361;DHT22;674;45.552;-122.600;2022-09-09T07:04:11;17.10;1.00
1361;DHT22;674;45.552;-122.600;2022-09-09T07:06:45;17.00;1.00
1361;DHT22;674;45.552;-122.600;2022-09-09T07:09:15;16.90;1.00
1361;DHT22;674;45.552;-122.600;2022-09-09T07:11:48;16.90;1.00
1361;DHT22;674;45.552;-122.600;2022-09-09T07:14:16;16.90;1.00
1361;DHT22;674;45.552;-122.600;2022-09-09T07:16:45;16.90;1.00
1361;DHT22;674;45.552;-122.600;2022-09-09T07:19:14;16.90;1.00
1361;DHT22;674;45.552;-122.600;2022-09-09T07:21:43;16.90;1.00
1361;DHT22;674;45.552;-122.600;2022-09-09T07:24:12;16.80;1.00
1361;DHT22;674;45.552;-122.600;2022-09-09T07:26:40;16.70;1.00
1361;DHT22;674;45.552;-122.600;2022-09-09T07:29:09;16.60;1.00
1361;DHT22;674;45.552;-122.600;2022-09-09T07:31:42;16.60;1.00
1361;DHT22;674;45.552;-122.600;2022-09-09T07:34:10;16.60;1.00
1361;DHT22;674;45.552;-122.600;2022-09-09T07:36:40;16.60;1.00
1361;DHT22;674;45.552;-122.600;2022-09-09T07:39:12;16.50;1.00
1361;DHT22;674;45.552;-122.600;2022-09-09T07:41:43;16.40;1.00
1361;DHT22;674;45.552;-122.600;2022-09-09T07:44:17;16.40;1.00
1361;DHT22;674;45.552;-122.600;2022-09-09T07:46:46;16.40;1.00
1361;DHT22;674;45.552;-122.600;2022-09-09T07:49:15;16.30;1.00
1361;DHT22;674;45.552;-122.600;2022-09-09T07:51:47;16.30;1.00
1361;DHT22;674;45.552;-122.600;2022-09-09T07:54:18;16.20;1.00
1361;DHT22;674;45.552;-122.600;2022-09-09T07:56:51;16.20;1.00
1361;DHT22;674;45.552;-122.600;2022-09-09T07:59:20;16.20;1.00
1361;DHT22;674;45.552;-122.600;2022-09-09T08:01:50;16.10;1.00
1361;DHT22;674;45.552;-122.600;2022-09-09T08:04:23;16.10;1.00
1361;DHT22;674;45.552;-122.600;2022-09-09T08:06:57;16.00;1.00
1361;DHT22;674;45.552;-122.600;2022-09-09T08:09:27;16.00;1.00
1361;DHT22;674;45.552;-122.600;2022-09-09T08:11:57;16.00;1.00
1361;DHT22;674;45.552;-122.600;2022-09-09T08:14:26;15.90;1.00
1361;DHT22;674;45.552;-122.600;2022-09-09T08:16:54;15.90;1.00
1361;DHT22;674;45.552;-122.600;2022-09-09T08:19:24;16.00;1.00
1361;DHT22;674;45.552;-122.600;2022-09-09T08:21:52;16.00;1.00
1361;DHT22;674;45.552;-122.600;2022-09-09T08:24:22;15.80;1.00
1361;DHT22;674;45.552;-122.600;2022-09-09T08:26:51;15.80;1.00
1361;DHT22;674;45.552;-122.600;2022-09-09T08:29:19;15.80;1.00
1361;DHT22;674;45.552;-122.600;2022-09-09T08:31:58;15.80;1.00
1361;DHT22;674;45.552;-122.600;2022-09-09T08:34:27;15.80;1.00
1361;DHT22;674;45.552;-122.600;2022-09-09T08:36:56;15.80;1.00
1361;DHT22;674;45.552;-122.600;2022-09-09T08:39:24;15.80;1.00
1361;DHT22;674;45.552;-122.600;2022-09-09T08:42:11;15.60;1.00
1361;DHT22;674;45.552;-122.600;2022-09-09T08:53:41;15.50;1.00
1361;DHT22;674;45.552;-122.600;2022-09-09T08:58:32;15.40;1.00
1361;DHT22;674;45.552;-122.600;2022-09-09T09:09:28;15.30;1.00
1361;DHT22;674;45.552;-122.600;2022-09-09T09:12:01;15.20;1.00
1361;DHT22;674;45.552;-122.600;2022-09-09T09:14:33;15.20;1.00
1361;DHT22;674;45.552;-122.600;2022-09-09T09:17:23;15.10;1.00
1361;DHT22;674;45.552;-122.600;2022-09-09T09:19:53;15.10;1.00
1361;DHT22;674;45.552;-122.600;2022-09-09T09:22:40;15.00;1.00
1361;DHT22;674;45.552;-122.600;2022-09-09T09:25:17;14.90;1.00
1361;DHT22;674;45.552;-122.600;2022-09-09T09:30:21;14.80;1.00
1361;DHT22;674;45.552;-122.600;2022-09-09T09:33:05;14.90;1.00
1361;DHT22;674;45.552;-122.600;2022-09-09T09:35:36;14.80;1.00
1361;DHT22;674;45.552;-122.600;2022-09-09T09:38:21;14.90;1.00
1361;DHT22;674;45.552;-122.600;2022-09-09T09:41:10;14.80;1.00
1361;DHT22;674;45.552;-122.600;2022-09-09T09:43:41;14.60;1.00
1361;DHT22;674;45.552;-122.600;2022-09-09T09:46:23;14.50;1.00
1361;DHT22;674;45.552;-122.600;2022-09-09T09:49:05;14.40;1.00
1361;DHT22;674;45.552;-122.600;2022-09-09T09:51:34;14.40;1.00
1361;DHT22;674;45.552;-122.600;2022-09-09T09:56:51;14.30;1.00
1361;DHT22;674;45.552;-122.600;2022-09-09T09:59:21;14.30;1.00
1361;DHT22;674;45.552;-122.600;2022-09-09T10:02:16;14.30;1.00
1361;DHT22;674;45.552;-122.600;2022-09-09T10:04:45;14.30;1.00
1361;DHT22;674;45.552;-122.600;2022-09-09T10:07:22;14.20;1.00
1361;DHT22;674;45.552;-122.600;2022-09-09T10:09:54;14.10;1.00
1361;DHT22;674;45.552;-122.600;2022-09-09T10:12:39;14.00;1.00
1361;DHT22;674;45.552;-122.600;2022-09-09T10:29:41;13.80;1.00
1361;DHT22;674;45.552;-122.600;2022-09-09T10:41:18;13.90;1.00
1361;DHT22;674;45.552;-122.600;2022-09-09T10:43:46;13.90;1.00
1361;DHT22;674;45.552;-122.600;2022-09-09T10:49:40;13.70;1.00
1361;DHT22;674;45.552;-122.600;2022-09-09T10:54:56;13.70;1.00
1361;DHT22;674;45.552;-122.600;2022-09-09T10:57:31;13.70;1.00
1361;DHT22;674;45.552;-122.600;2022-09-09T11:00:30;13.60;1.00
1361;DHT22;674;45.552;-122.600;2022-09-09T11:03:00;13.50;1.00
1361;DHT22;674;45.552;-122.600;2022-09-09T11:05:40;13.60;1.00
1361;DHT22;674;45.552;-122.600;2022-09-09T11:08:34;13.50;1.00
1361;DHT22;674;45.552;-122.600;2022-09-09T11:11:17;13.50;1.00
1361;DHT22;674;45.552;-122.600;2022-09-09T11:17:16;13.50;1.00
1361;DHT22;674;45.552;-122.600;2022-09-09T11:19:46;13.10;1.00
1361;DHT22;674;45.552;-122.600;2022-09-09T11:22:35;13.10;1.00
1361;DHT22;674;45.552;-122.600;2022-09-09T11:25:30;13.10;1.00
1361;DHT22;674;45.552;-122.600;2022-09-09T11:28:08;13.10;1.00
1361;DHT22;674;45.552;-122.600;2022-09-09T11:39:44;12.80;1.00
1361;DHT22;674;45.552;-122.600;2022-09-09T11:42:23;12.80;1.00
1361;DHT22;674;45.552;-122.600;2022-09-09T11:44:52;12.90;1.00
1361;DHT22;674;45.552;-122.600;2022-09-09T11:47:28;12.70;1.00
1361;DHT22;674;45.552;-122.600;2022-09-09T11:52:43;12.90;1.00
1361;DHT22;674;45.552;-122.600;2022-09-09T11:55:31;12.70;1.00
1361;DHT22;674;45.552;-122.600;2022-09-09T12:00:44;12.70;1.00
1361;DHT22;674;45.552;-122.600;2022-09-09T12:03:40;12.70;1.00
1361;DHT22;674;45.552;-122.600;2022-09-09T12:06:32;12.70;1.00
1361;DHT22;674;45.552;-122.600;2022-09-09T12:09:22;12.80;1.00
1361;DHT22;674;45.552;-122.600;2022-09-09T12:12:05;12.60;1.00
1361;DHT22;674;45.552;-122.600;2022-09-09T12:14:42;12.60;1.00
1361;DHT22;674;45.552;-122.600;2022-09-09T12:17:25;12.40;1.00
1361;DHT22;674;45.552;-122.600;2022-09-09T12:20:17;12.30;9.10
1361;DHT22;674;45.552;-122.600;2022-09-09T12:22:58;12.30;10.70
1361;DHT22;674;45.552;-122.600;2022-09-09T12:31:41;12.40;36.40
1361;DHT22;674;45.552;-122.600;2022-09-09T12:36:48;12.30;50.30
1361;DHT22;674;45.552;-122.600;2022-09-09T12:39:39;12.10;49.20
1361;DHT22;674;45.552;-122.600;2022-09-09T12:42:19;12.00;58.30
1361;DHT22;674;45.552;-122.600;2022-09-09T12:44:56;12.10;63.70
1361;DHT22;674;45.552;-122.600;2022-09-09T12:47:56;12.10;59.60
1361;DHT22;674;45.552;-122.600;2022-09-09T12:50:29;12.20;51.80
1361;DHT22;674;45.552;-122.600;2022-09-09T12:53:07;12.30;47.60
1361;DHT22;674;45.552;-122.600;2022-09-09T12:55:38;12.20;71.00
1361;DHT22;674;45.552;-122.600;2022-09-09T12:58:11;12.20;68.70
1361;DHT22;674;45.552;-122.600;2022-09-09T13:00:50;12.30;60.80
1361;DHT22;674;45.552;-122.600;2022-09-09T13:03:21;12.20;68.50
1361;DHT22;674;45.552;-122.600;2022-09-09T13:05:50;12.10;78.60
1361;DHT22;674;45.552;-122.600;2022-09-09T13:08:19;12.20;73.20
1361;DHT22;674;45.552;-122.600;2022-09-09T13:10:58;12.00;70.10
1361;DHT22;674;45.552;-122.600;2022-09-09T13:13:38;11.90;79.40
1361;DHT22;674;45.552;-122.600;2022-09-09T13:16:33;12.00;73.30
1361;DHT22;674;45.552;-122.600;2022-09-09T13:19:13;11.90;81.80
1361;DHT22;674;45.552;-122.600;2022-09-09T13:21:43;11.80;86.70
1361;DHT22;674;45.552;-122.600;2022-09-09T13:24:31;11.90;85.80
1361;DHT22;674;45.552;-122.600;2022-09-09T13:27:20;11.90;84.20
1361;DHT22;674;45.552;-122.600;2022-09-09T13:29:53;11.90;86.20
1361;DHT22;674;45.552;-122.600;2022-09-09T13:32:24;11.90;83.50
1361;DHT22;674;45.552;-122.600;2022-09-09T13:35:00;11.80;87.20
1361;DHT22;674;45.552;-122.600;2022-09-09T13:37:37;11.80;88.20
1361;DHT22;674;45.552;-122.600;2022-09-09T13:40:17;11.80;88.10
1361;DHT22;674;45.552;-122.600;2022-09-09T13:42:45;11.80;86.40
1361;DHT22;674;45.552;-122.600;2022-09-09T13:45:22;11.80;86.30
1361;DHT22;674;45.552;-122.600;2022-09-09T13:47:53;11.90;81.80
1361;DHT22;674;45.552;-122.600;2022-09-09T13:50:27;11.90;79.00
1361;DHT22;674;45.552;-122.600;2022-09-09T13:52:58;11.90;80.00
1361;DHT22;674;45.552;-122.600;2022-09-09T13:55:28;11.90;78.40
1361;DHT22;674;45.552;-122.600;2022-09-09T13:58:02;11.80;82.50
1361;DHT22;674;45.552;-122.600;2022-09-09T14:00:33;11.80;82.00
1361;DHT22;674;45.552;-122.600;2022-09-09T14:03:02;11.90;79.00
1361;DHT22;674;45.552;-122.600;2022-09-09T14:05:33;12.00;79.00
1361;DHT22;674;45.552;-122.600;2022-09-09T14:08:04;12.10;77.20
1361;DHT22;674;45.552;-122.600;2022-09-09T14:10:33;12.20;70.90
1361;DHT22;674;45.552;-122.600;2022-09-09T14:13:05;12.20;69.10
1361;DHT22;674;45.552;-122.600;2022-09-09T14:15:33;12.20;72.50
1361;DHT22;674;45.552;-122.600;2022-09-09T14:18:02;12.20;70.30
1361;DHT22;674;45.552;-122.600;2022-09-09T14:20:30;12.20;68.20
1361;DHT22;674;45.552;-122.600;2022-09-09T14:23:00;12.30;69.40
1361;DHT22;674;45.552;-122.600;2022-09-09T14:25:29;12.40;64.60
1361;DHT22;674;45.552;-122.600;2022-09-09T14:27:59;12.50;61.90
1361;DHT22;674;45.552;-122.600;2022-09-09T14:30:27;12.50;63.70
1361;DHT22;674;45.552;-122.600;2022-09-09T14:32:55;12.60;61.70
1361;DHT22;674;45.552;-122.600;2022-09-09T14:35:24;12.60;60.10
1361;DHT22;674;45.552;-122.600;2022-09-09T14:37:52;12.50;64.50
1361;DHT22;674;45.552;-122.600;2022-09-09T14:40:21;12.80;60.70
1361;DHT22;674;45.552;-122.600;2022-09-09T14:42:49;13.00;55.00
1361;DHT22;674;45.552;-122.600;2022-09-09T14:45:17;13.20;46.50
1361;DHT22;674;45.552;-122.600;2022-09-09T14:47:46;13.30;34.40
1361;DHT22;674;45.552;-122.600;2022-09-09T14:50:14;13.30;38.30
1361;DHT22;674;45.552;-122.600;2022-09-09T14:52:42;13.50;26.20
1361;DHT22;674;45.552;-122.600;2022-09-09T14:55:11;13.40;35.20
1361;DHT22;674;45.552;-122.600;2022-09-09T14:57:40;13.60;35.50
1361;DHT22;674;45.552;-122.600;2022-09-09T15:00:10;13.70;30.70
1361;DHT22;674;45.552;-122.600;2022-09-09T15:02:39;13.80;27.70
1361;DHT22;674;45.552;-122.600;2022-09-09T15:05:08;14.10;24.90
1361;DHT22;674;45.552;-122.600;2022-09-09T15:07:36;14.30;26.50
1361;DHT22;674;45.552;-122.600;2022-09-09T15:10:06;14.60;1.00
1361;DHT22;674;45.552;-122.600;2022-09-09T15:12:34;14.80;4.30
1361;DHT22;674;45.552;-122.600;2022-09-09T15:15:04;15.00;1.00
1361;DHT22;674;45.552;-122.600;2022-09-09T15:17:32;15.20;1.00
1361;DHT22;674;45.552;-122.600;2022-09-09T15:20:04;15.40;1.00
1361;DHT22;674;45.552;-122.600;2022-09-09T15:22:34;15.40;1.00
1361;DHT22;674;45.552;-122.600;2022-09-09T15:25:04;15.60;1.00
1361;DHT22;674;45.552;-122.600;2022-09-09T15:27:33;15.80;1.00
1361;DHT22;674;45.552;-122.600;2022-09-09T15:30:02;16.00;1.00
1361;DHT22;674;45.552;-122.600;2022-09-09T15:32:30;16.20;1.00
1361;DHT22;674;45.552;-122.600;2022-09-09T15:35:00;16.40;1.00
1361;DHT22;674;45.552;-122.600;2022-09-09T15:37:29;16.50;1.00
1361;DHT22;674;45.552;-122.600;2022-09-09T15:39:57;16.60;1.00
1361;DHT22;674;45.552;-122.600;2022-09-09T15:42:27;16.70;1.00
1361;DHT22;674;45.552;-122.600;2022-09-09T15:44:57;16.90;1.00
1361;DHT22;674;45.552;-122.600;2022-09-09T15:47:26;17.10;1.00
1361;DHT22;674;45.552;-122.600;2022-09-09T15:49:55;17.60;1.00
1361;DHT22;674;45.552;-122.600;2022-09-09T15:52:23;18.50;1.00
1361;DHT22;674;45.552;-122.600;2022-09-09T15:54:52;19.70;1.00
1361;DHT22;674;45.552;-122.600;2022-09-09T15:57:20;21.10;1.00
1361;DHT22;674;45.552;-122.600;2022-09-09T15:59:49;22.00;1.00
1361;DHT22;674;45.552;-122.600;2022-09-09T16:02:17;23.00;1.00
1361;DHT22;674;45.552;-122.600;2022-09-09T16:04:46;23.20;1.00
1361;DHT22;674;45.552;-122.600;2022-09-09T16:07:14;22.40;1.00
1361;DHT22;674;45.552;-122.600;2022-09-09T16:09:43;22.70;1.00
1361;DHT22;674;45.552;-122.600;2022-09-09T16:12:11;22.80;1.00
1361;DHT22;674;45.552;-122.600;2022-09-09T16:14:40;22.30;1.00
1361;DHT22;674;45.552;-122.600;2022-09-09T16:17:09;22.10;1.00
1361;DHT22;674;45.552;-122.600;2022-09-09T16:19:37;21.70;1.00
1361;DHT22;674;45.552;-122.600;2022-09-09T16:22:06;21.40;1.00
1361;DHT22;674;45.552;-122.600;2022-09-09T16:24:34;21.40;1.00
1361;DHT22;674;45.552;-122.600;2022-09-09T16:27:03;21.70;1.00
1361;DHT22;674;45.552;-122.600;2022-09-09T16:29:31;21.20;1.00
1361;DHT22;674;45.552;-122.600;2022-09-09T16:32:00;20.90;1.00
1361;DHT22;674;45.552;-122.600;2022-09-09T16:34:30;21.00;1.00
1361;DHT22;674;45.552;-122.600;2022-09-09T16:36:59;21.00;1.00
1361;DHT22;674;45.552;-122.600;2022-09-09T16:39:27;20.80;1.00
1361;DHT22;674;45.552;-122.600;2022-09-09T16:41:55;20.20;1.00
1361;DHT22;674;45.552;-122.600;2022-09-09T16:44:24;20.40;1.00
1361;DHT22;674;45.552;-122.600;2022-09-09T16:46:53;20.70;1.00
1361;DHT22;674;45.552;-122.600;2022-09-09T16:49:27;20.50;1.00
1361;DHT22;674;45.552;-122.600;2022-09-09T16:51:59;20.30;1.00
1361;DHT22;674;45.552;-122.600;2022-09-09T16:54:28;20.60;1.00
1361;DHT22;674;45.552;-122.600;2022-09-09T16:56:56;20.50;1.00
1361;DHT22;674;45.552;-122.600;2022-09-09T16:59:25;20.70;1.00
1361;DHT22;674;45.552;-122.600;2022-09-09T17:01:54;20.80;1.00
1361;DHT22;674;45.552;-122.600;2022-09-09T17:04:26;21.00;1.00
1361;DHT22;674;45.552;-122.600;2022-09-09T17:06:56;21.00;1.00
1361;DHT22;674;45.552;-122.600;2022-09-09T17:09:25;21.00;1.00
1361;DHT22;674;45.552;-122.600;2022-09-09T17:11:56;21.10;1.00
1361;DHT22;674;45.552;-122.600;2022-09-09T17:14:25;21.20;1.00
1361;DHT22;674;45.552;-122.600;2022-09-09T17:16:53;21.40;1.00
1361;DHT22;674;45.552;-122.600;2022-09-09T17:19:22;21.50;1.00
1361;DHT22;674;45.552;-122.600;2022-09-09T17:21:50;21.70;1.00
1361;DHT22;674;45.552;-122.600;2022-09-09T17:24:38;21.70;1.00
1361;DHT22;674;45.552;-122.600;2022-09-09T17:27:08;21.80;1.00
1361;DHT22;674;45.552;-122.600;2022-09-09T17:29:36;21.80;1.00
1361;DHT22;674;45.552;-122.600;2022-09-09T17:32:06;21.80;1.00
1361;DHT22;674;45.552;-122.600;2022-09-09T17:34:35;21.90;1.00
1361;DHT22;674;45.552;-122.600;2022-09-09T17:37:03;22.20;1.00
1361;DHT22;674;45.552;-122.600;2022-09-09T17:39:33;22.30;1.00
1361;DHT22;674;45.552;-122.600;2022-09-09T17:42:02;22.50;1.00
1361;DHT22;674;45.552;-122.600;2022-09-09T17:44:31;22.60;1.00
1361;DHT22;674;45.552;-122.600;2022-09-09T17:47:00;22.90;1.00
1361;DHT22;674;45.552;-122.600;2022-09-09T17:49:28;23.30;1.00
1361;DHT22;674;45.552;-122.600;2022-09-09T17:51:56;23.70;1.00
1361;DHT22;674;45.552;-122.600;2022-09-09T17:54:25;23.90;1.00
1361;DHT22;674;45.552;-122.600;2022-09-09T17:56:53;23.80;1.00
1361;DHT22;674;45.552;-122.600;2022-09-09T17:59:22;24.00;1.00
1361;DHT22;674;45.552;-122.600;2022-09-09T18:01:52;24.30;1.00
1361;DHT22;674;45.552;-122.600;2022-09-09T18:04:21;24.50;1.00
1361;DHT22;674;45.552;-122.600;2022-09-09T18:06:51;24.80;1.00
1361;DHT22;674;45.552;-122.600;2022-09-09T18:09:23;24.90;1.00
1361;DHT22;674;45.552;-122.600;2022-09-09T18:11:55;25.10;1.00
1361;DHT22;674;45.552;-122.600;2022-09-09T18:14:29;25.30;1.00
1361;DHT22;674;45.552;-122.600;2022-09-09T18:16:59;25.40;1.00
1361;DHT22;674;45.552;-122.600;2022-09-09T18:19:29;25.40;1.00
1361;DHT22;674;45.552;-122.600;2022-09-09T18:21:58;25.50;1.00